Time;durP1;ratioP1;P1;durP2;ratioP2;P2;SDS_P1;SDS_P2;PMS_P1;PMS_P2;Temp;Humidity;BMP_temperature;BMP_pressure;BME280_temperature;BME280_humidity;BME280_pressure;Samples;Min_cycle;Max_cycle;Signal;HPM_P1;HPM_P2
2021/11/26 00:00:55;;;;;;;;;;;;;;;0.64;100.00;100677.25;5049588;28;19971;-53
2021/11/26 00:03:22;;;;;;;;;;;;;;;0.67;100.00;100667.69;5052429;28;19925;-51
2021/11/26 00:05:48;;;;;;;;;;;;;;;0.69;100.00;100653.84;5052632;28;19932;-50
2021/11/26 00:08:15;;;;;;;;;;;;;;;0.72;100.00;100653.75;5053719;28;19925;-49
2021/11/26 00:10:42;;;;;;;;;;;;;;;0.71;100.00;100647.75;5054225;28;20299;-50
2021/11/26 00:13:10;;;;;;;;;;;;;;;0.73;100.00;100645.94;5055308;28;19925;-49
2021/11/26 00:15:40;;;;;;;;;;;;;;;0.74;100.00;100655.41;5055227;28;20372;-51
2021/11/26 00:18:11;;;;;;;;;;;;;;;0.76;100.00;100645.84;5051319;28;19935;-51
2021/11/26 00:20:38;;;;;;;;;;;;;;;0.76;100.00;100647.59;5050799;28;20410;-50
2021/11/26 00:23:05;;;;;;;;;;;;;;;0.79;100.00;100638.03;5052572;28;19924;-52
2021/11/26 00:25:32;;;;;;;;;;;;;;;0.82;100.00;100631.91;5051791;28;19928;-52
2021/11/26 00:27:58;;;;;;;;;;;;;;;0.83;100.00;100626.69;5051486;28;19928;-48
2021/11/26 00:30:25;;;;;;;;;;;;;;;0.84;100.00;100622.34;5050326;28;19929;-50
2021/11/26 00:32:52;;;;;;;;;;;;;;;0.91;100.00;100617.84;5052473;28;19928;-47
2021/11/26 00:35:18;;;;;;;;;;;;;;;0.92;100.00;100610.03;5055295;28;19928;-51
2021/11/26 00:37:45;;;;;;;;;;;;;;;0.92;100.00;100599.69;5054725;28;19970;-53
2021/11/26 00:40:12;;;;;;;;;;;;;;;0.95;100.00;100598.75;5052091;28;19924;-48
2021/11/26 00:42:41;;;;;;;;;;;;;;;0.96;100.00;100590.09;5050588;28;19929;-51
2021/11/26 00:45:09;;;;;;;;;;;;;;;0.98;100.00;100588.28;5050167;28;19935;-50
2021/11/26 00:47:36;;;;;;;;;;;;;;;0.98;100.00;100586.56;5049362;28;20360;-50
2021/11/26 00:50:03;;;;;;;;;;;;;;;1.01;100.00;100594.22;5051929;28;20421;-48
2021/11/26 00:52:29;;;;;;;;;;;;;;;1.02;100.00;100589.88;5049750;28;19925;-53
2021/11/26 00:54:56;;;;;;;;;;;;;;;1.05;100.00;100588.97;5050630;28;19925;-54
2021/11/26 00:57:22;;;;;;;;;;;;;;;1.09;100.00;100575.88;5051437;28;20392;-54
2021/11/26 00:59:49;;;;;;;;;;;;;;;1.13;100.00;100577.50;5050010;28;20023;-55
2021/11/26 01:02:16;;;;;;;;;;;;;;;1.15;100.00;100570.50;5051287;28;20257;-55
2021/11/26 01:04:43;;;;;;;;;;;;;;;1.16;100.00;100564.44;5033672;28;19978;-55
2021/11/26 01:07:09;;;;;;;;;;;;;;;1.20;100.00;100562.59;5051399;28;19945;-54
2021/11/26 01:09:37;;;;;;;;;;;;;;;1.22;100.00;100553.03;5050859;28;19949;-51
2021/11/26 01:12:03;;;;;;;;;;;;;;;1.26;100.00;100556.38;5050250;28;19970;-53
2021/11/26 01:14:30;;;;;;;;;;;;;;;1.26;100.00;100543.44;5054127;28;20382;-54
2021/11/26 01:16:57;;;;;;;;;;;;;;;1.28;100.00;100534.72;5054187;28;19928;-54
2021/11/26 01:19:23;;;;;;;;;;;;;;;1.34;100.00;100538.84;5054161;28;19925;-53
2021/11/26 01:21:50;;;;;;;;;;;;;;;1.38;100.00;100531.81;5053790;28;19925;-51
2021/11/26 01:24:17;;;;;;;;;;;;;;;1.41;100.00;100526.56;5051625;28;20346;-50
2021/11/26 01:26:43;;;;;;;;;;;;;;;1.41;100.00;100519.63;5050134;28;19936;-47
2021/11/26 01:29:10;;;;;;;;;;;;;;;1.42;100.00;100517.84;5050351;28;19924;-49
2021/11/26 01:31:38;;;;;;;;;;;;;;;1.45;100.00;100516.03;5050180;28;19929;-50
2021/11/26 01:34:05;;;;;;;;;;;;;;;1.47;100.00;100509.06;5033400;28;19929;-49
2021/11/26 01:36:33;;;;;;;;;;;;;;;1.48;100.00;100515.91;5050662;28;19924;-51
2021/11/26 01:39:00;;;;;;;;;;;;;;;1.50;100.00;100502.91;5050689;28;19929;-52
2021/11/26 01:41:26;;;;;;;;;;;;;;;1.51;100.00;100496.81;5050158;28;19925;-46
2021/11/26 01:43:53;;;;;;;;;;;;;;;1.54;100.00;100495.88;5049902;28;19929;-52
2021/11/26 01:46:20;;;;;;;;;;;;;;;1.55;100.00;100492.41;5050106;28;19928;-47
2021/11/26 01:48:47;;;;;;;;;;;;;;;1.56;100.00;100492.34;5050120;28;19936;-55
2021/11/26 01:51:13;;;;;;;;;;;;;;;1.59;100.00;100489.66;5050655;28;19925;-50
2021/11/26 01:53:40;;;;;;;;;;;;;;;1.59;100.00;100479.28;5048875;28;20319;-52
2021/11/26 01:56:07;;;;;;;;;;;;;;;1.64;100.00;100479.13;5050620;28;19979;-52
2021/11/26 01:58:33;;;;;;;;;;;;;;;1.68;100.00;100470.34;5049108;28;20343;-52
2021/11/26 02:01:02;;;;;;;;;;;;;;;1.69;100.00;100459.94;5048970;28;19925;-52
2021/11/26 02:03:30;;;;;;;;;;;;;;;1.70;100.00;100460.75;5048832;28;20032;-52
2021/11/26 02:05:57;;;;;;;;;;;;;;;1.71;100.00;100448.66;5052757;28;20334;-52
2021/11/26 02:08:23;;;;;;;;;;;;;;;1.71;100.00;100444.31;5051893;28;20260;-51
2021/11/26 02:10:50;;;;;;;;;;;;;;;1.73;100.00;100447.69;5053100;28;19948;-47
2021/11/26 02:13:17;;;;;;;;;;;;;;;1.75;100.00;100437.28;5053148;28;19928;-48
2021/11/26 02:15:44;;;;;;;;;;;;;;;1.75;100.00;100440.72;5049288;28;19929;-50
2021/11/26 02:18:13;;;;;;;;;;;;;;;1.77;100.00;100433.75;5048745;28;20372;-48
2021/11/26 02:20:39;;;;;;;;;;;;;;;1.80;100.00;100427.56;5048472;28;19995;-47
2021/11/26 02:23:06;;;;;;;;;;;;;;;1.82;100.00;100420.59;5049497;28;20430;-51
2021/11/26 02:25:33;;;;;;;;;;;;;;;1.83;100.00;100415.34;5031799;28;19924;-49
2021/11/26 02:28:01;;;;;;;;;;;;;;;1.85;100.00;100416.16;5048463;28;19929;-49
2021/11/26 02:30:28;;;;;;;;;;;;;;;1.87;100.00;100413.50;5047184;28;19928;-52
2021/11/26 02:32:57;;;;;;;;;;;;;;;1.89;100.00;100400.47;5048642;28;19932;-52
2021/11/26 02:35:24;;;;;;;;;;;;;;;1.90;100.00;100408.22;5049604;28;19932;-52
2021/11/26 02:37:51;;;;;;;;;;;;;;;1.94;100.00;100404.59;5049843;28;19951;-49
2021/11/26 02:40:19;;;;;;;;;;;;;;;1.97;100.00;100411.44;5049506;28;20387;-51
2021/11/26 02:42:46;;;;;;;;;;;;;;;1.99;100.00;100400.09;5048151;28;19994;-49
2021/11/26 02:45:13;;;;;;;;;;;;;;;2.01;100.00;100400.03;5049434;28;19970;-49
2021/11/26 02:47:41;;;;;;;;;;;;;;;2.05;100.00;100393.84;5051981;28;19929;-51
2021/11/26 02:50:09;;;;;;;;;;;;;;;2.10;100.00;100388.47;5049950;28;19979;-51
2021/11/26 02:52:36;;;;;;;;;;;;;;;2.11;100.00;100380.63;5049385;28;19929;-50
2021/11/26 02:55:03;;;;;;;;;;;;;;;2.15;100.00;100370.97;5031996;28;19996;-51
2021/11/26 02:57:30;;;;;;;;;;;;;;;2.18;100.00;100363.06;5049137;28;19955;-49
2021/11/26 02:59:57;;;;;;;;;;;;;;;2.22;100.00;100361.22;5050952;28;19971;-53
2021/11/26 03:02:23;;;;;;;;;;;;;;;2.24;100.00;100356.84;5052102;28;19925;-51
2021/11/26 03:04:50;;;;;;;;;;;;;;;2.25;100.00;100348.97;5049379;28;19928;-49
2021/11/26 03:07:17;;;;;;;;;;;;;;;2.27;100.00;100341.97;5056581;28;19947;-49
2021/11/26 03:09:43;;;;;;;;;;;;;;;2.29;100.00;100342.78;5056168;28;19929;-49
2021/11/26 03:12:10;;;;;;;;;;;;;;;2.31;100.00;100340.94;5055623;28;20330;-50
2021/11/26 03:14:37;;;;;;;;;;;;;;;2.35;100.00;100331.31;5053436;28;20317;-53
2021/11/26 03:17:04;;;;;;;;;;;;;;;2.37;100.00;100324.28;5055610;28;19990;-54
2021/11/26 03:19:31;;;;;;;;;;;;;;;2.40;100.00;100319.00;5055986;28;19972;-53
2021/11/26 03:21:57;;;;;;;;;;;;;;;2.45;100.00;100309.25;5054633;28;19944;-52
2021/11/26 03:24:24;;;;;;;;;;;;;;;2.44;100.00;100310.19;5056148;28;19925;-53
2021/11/26 03:26:51;;;;;;;;;;;;;;;2.45;100.00;100300.63;5058176;28;19978;-51
2021/11/26 03:29:17;;;;;;;;;;;;;;;2.46;100.00;100300.56;5055268;28;20465;-55
2021/11/26 03:31:44;;;;;;;;;;;;;;;2.46;100.00;100290.19;5054886;28;19935;-51
2021/11/26 03:34:11;;;;;;;;;;;;;;;2.46;100.00;100290.19;5055725;28;19929;-48
2021/11/26 03:36:37;;;;;;;;;;;;;;;2.47;100.00;100284.09;5055865;28;20475;-47
2021/11/26 03:39:04;;;;;;;;;;;;;;;2.47;100.00;100268.50;5055654;28;20389;-53
2021/11/26 03:41:31;;;;;;;;;;;;;;;2.49;100.00;100269.28;5054422;28;20013;-55
2021/11/26 03:43:58;;;;;;;;;;;;;;;2.49;100.00;100264.09;5058296;28;19936;-50
2021/11/26 03:46:24;;;;;;;;;;;;;;;2.50;100.00;100263.19;5055090;28;20338;-51
2021/11/26 03:48:51;;;;;;;;;;;;;;;2.51;100.00;100245.88;5055674;28;19928;-50
2021/11/26 03:51:17;;;;;;;;;;;;;;;2.51;100.00;100249.31;5056194;28;20376;-48
2021/11/26 03:53:44;;;;;;;;;;;;;;;2.52;100.00;100240.63;5057450;28;20394;-49
2021/11/26 03:56:11;;;;;;;;;;;;;;;2.53;100.00;100231.06;5040775;28;19990;-50
2021/11/26 03:58:37;;;;;;;;;;;;;;;2.51;100.00;100233.75;5053744;28;20277;-50
2021/11/26 04:01:04;;;;;;;;;;;;;;;2.53;100.00;100233.66;5053734;28;19925;-52
2021/11/26 04:03:31;;;;;;;;;;;;;;;2.55;100.00;100226.69;5053764;28;19925;-52
2021/11/26 04:05:57;;;;;;;;;;;;;;;2.56;100.00;100220.56;5056253;28;20344;-48
2021/11/26 04:08:24;;;;;;;;;;;;;;;2.58;100.00;100217.88;5055674;28;20648;-48
2021/11/26 04:10:51;;;;;;;;;;;;;;;2.57;100.00;100206.66;5054475;28;19929;-50
2021/11/26 04:13:18;;;;;;;;;;;;;;;2.56;100.00;100212.75;5055933;28;19925;-50
2021/11/26 04:15:45;;;;;;;;;;;;;;;2.59;100.00;100214.38;5058174;28;19925;-49
2021/11/26 04:18:11;;;;;;;;;;;;;;;2.60;100.00;100206.53;5055576;28;20004;-50
2021/11/26 04:20:38;;;;;;;;;;;;;;;2.68;100.00;100198.44;5053467;28;20473;-50
2021/11/26 04:23:05;;;;;;;;;;;;;;;2.65;100.00;100195.97;5051385;28;19929;-50
2021/11/26 04:25:32;;;;;;;;;;;;;;;2.65;100.00;100193.38;5053014;28;19968;-50
2021/11/26 04:27:58;;;;;;;;;;;;;;;2.70;100.00;100192.25;5052387;28;19929;-50
2021/11/26 04:30:26;;;;;;;;;;;;;;;2.71;100.00;100190.50;5050653;28;19925;-53
2021/11/26 04:32:53;;;;;;;;;;;;;;;2.72;100.00;100186.16;5052845;28;19971;-53
2021/11/26 04:35:20;;;;;;;;;;;;;;;2.74;100.00;100174.81;5052379;28;19940;-51
2021/11/26 04:37:46;;;;;;;;;;;;;;;2.77;100.00;100166.00;5034469;28;19983;-53
2021/11/26 04:40:13;;;;;;;;;;;;;;;2.80;100.00;100165.91;5051597;28;19944;-54
2021/11/26 04:42:41;;;;;;;;;;;;;;;2.81;100.00;100159.78;5051350;28;19990;-54
2021/11/26 04:45:08;;;;;;;;;;;;;;;2.83;100.00;100155.38;5053580;28;19970;-54
2021/11/26 04:47:35;;;;;;;;;;;;;;;2.87;100.00;100155.16;5054501;28;19968;-54
2021/11/26 04:50:02;;;;;;;;;;;;;;;2.86;100.00;100153.50;5053193;28;19929;-53
2021/11/26 04:52:29;;;;;;;;;;;;;;;2.85;100.00;100146.59;5050483;28;19925;-50
2021/11/26 04:54:56;;;;;;;;;;;;;;;2.89;100.00;100152.53;5050559;28;19925;-52
2021/11/26 04:57:23;;;;;;;;;;;;;;;2.90;100.00;100143.78;5051214;28;20280;-52
2021/11/26 04:59:49;;;;;;;;;;;;;;;2.92;100.00;100134.19;5050659;28;20537;-52
2021/11/26 05:02:16;;;;;;;;;;;;;;;2.92;100.00;100139.38;5049798;28;20395;-51
2021/11/26 05:04:43;;;;;;;;;;;;;;;2.97;100.00;100132.25;5051594;28;19925;-50
2021/11/26 05:07:09;;;;;;;;;;;;;;;3.01;100.00;100119.94;5054194;28;19931;-47
2021/11/26 05:09:37;;;;;;;;;;;;;;;3.01;100.00;100125.13;5050037;28;19935;-49
2021/11/26 05:12:03;;;;;;;;;;;;;;;3.01;100.00;100118.19;5033810;28;19929;-49
2021/11/26 05:14:31;;;;;;;;;;;;;;;3.03;100.00;100110.34;5050092;28;19933;-53
2021/11/26 05:16:59;;;;;;;;;;;;;;;3.04;100.00;100105.06;5051535;28;19933;-55
2021/11/26 05:19:25;;;;;;;;;;;;;;;3.02;100.00;100098.25;5054032;28;19924;-54
2021/11/26 05:21:52;;;;;;;;;;;;;;;3.06;100.00;100093.75;5054136;28;20356;-50
2021/11/26 05:24:19;;;;;;;;;;;;;;;3.06;100.00;100089.41;5054145;28;19935;-54
2021/11/26 05:26:45;;;;;;;;;;;;;;;3.06;100.00;100086.81;5052840;28;19925;-52
2021/11/26 05:29:12;;;;;;;;;;;;;;;3.02;100.00;100086.09;5053339;28;20042;-51
2021/11/26 05:31:38;;;;;;;;;;;;;;;3.02;100.00;100082.66;5051084;28;20024;-53
2021/11/26 05:34:05;;;;;;;;;;;;;;;3.01;100.00;100073.16;5051520;28;19932;-53
2021/11/26 05:36:33;;;;;;;;;;;;;;;3.00;100.00;100074.06;5050869;28;19924;-52
2021/11/26 05:38:59;;;;;;;;;;;;;;;3.01;100.00;100074.03;5051165;28;19978;-51
2021/11/26 05:41:26;;;;;;;;;;;;;;;2.99;100.00;100067.22;5049961;28;20329;-53
2021/11/26 05:43:53;;;;;;;;;;;;;;;2.95;100.00;100060.47;5049863;28;19933;-53
2021/11/26 05:46:20;;;;;;;;;;;;;;;2.93;100.00;100047.56;5050298;28;19924;-47
2021/11/26 05:48:46;;;;;;;;;;;;;;;2.92;100.00;100039.81;5050072;28;19936;-48
2021/11/26 05:51:13;;;;;;;;;;;;;;;2.88;100.00;100039.97;5049043;28;19925;-51
2021/11/26 05:53:40;;;;;;;;;;;;;;;2.88;100.00;100039.97;5050646;28;19986;-53
2021/11/26 05:56:06;;;;;;;;;;;;;;;2.85;100.00;100029.72;5034256;28;19924;-49
2021/11/26 05:58:33;;;;;;;;;;;;;;;2.84;100.00;100030.63;5051996;28;19925;-48
2021/11/26 06:01:00;;;;;;;;;;;;;;;2.81;100.00;100028.19;5049610;28;19924;-47
2021/11/26 06:03:27;;;;;;;;;;;;;;;2.84;100.00;100019.41;5034439;28;19932;-47
2021/11/26 06:05:53;;;;;;;;;;;;;;;2.82;100.00;100022.09;5050805;28;20022;-49
2021/11/26 06:08:20;;;;;;;;;;;;;;;2.81;100.00;100003.94;5050815;28;19928;-52
2021/11/26 06:10:47;;;;;;;;;;;;;;;2.81;100.00;100009.16;5051210;28;19925;-53
2021/11/26 06:13:13;;;;;;;;;;;;;;;2.80;100.00;100005.72;5051328;28;20399;-54
2021/11/26 06:15:40;;;;;;;;;;;;;;;2.84;100.00;99988.25;5047009;28;19936;-53
2021/11/26 06:18:07;;;;;;;;;;;;;;;2.80;100.00;99984.94;5052680;28;19924;-53
2021/11/26 06:20:34;;;;;;;;;;;;;;;2.80;100.00;99971.97;5052770;28;19998;-55
2021/11/26 06:23:00;;;;;;;;;;;;;;;2.80;100.00;99969.34;5050427;28;19925;-54
2021/11/26 06:25:27;;;;;;;;;;;;;;;2.82;100.00;99971.88;5049923;28;19929;-52
2021/11/26 06:27:54;;;;;;;;;;;;;;;2.82;100.00;99966.69;5049005;28;19925;-52
2021/11/26 06:30:22;;;;;;;;;;;;;;;2.81;100.00;99965.84;5033393;28;19951;-51
2021/11/26 06:32:49;;;;;;;;;;;;;;;2.81;100.00;99952.00;5052835;28;20392;-53
2021/11/26 06:35:16;;;;;;;;;;;;;;;2.85;100.00;99950.94;5049098;28;19951;-53
2021/11/26 06:37:43;;;;;;;;;;;;;;;2.80;100.00;99948.59;5048413;28;19978;-55
2021/11/26 06:40:10;;;;;;;;;;;;;;;2.82;100.00;99945.91;5049260;28;19929;-54
2021/11/26 06:42:37;;;;;;;;;;;;;;;2.82;100.00;99945.91;5050550;28;19964;-55
2021/11/26 06:45:04;;;;;;;;;;;;;;;2.79;100.00;99943.47;5047585;28;19948;-55
2021/11/26 06:47:31;;;;;;;;;;;;;;;2.82;100.00;99936.38;5047809;28;19952;-56
2021/11/26 06:49:57;;;;;;;;;;;;;;;2.83;100.00;99932.84;5050184;28;19931;-51
2021/11/26 06:52:24;;;;;;;;;;;;;;;2.84;100.00;99921.56;5050087;28;19924;-53
2021/11/26 06:54:51;;;;;;;;;;;;;;;2.88;100.00;99922.25;5048256;28;19967;-51
2021/11/26 06:57:18;;;;;;;;;;;;;;;2.84;100.00;99916.34;5049481;28;19960;-52
2021/11/26 06:59:44;;;;;;;;;;;;;;;2.83;100.00;99919.03;5046361;28;19979;-49
2021/11/26 07:02:11;;;;;;;;;;;;;;;2.86;100.00;99913.69;5047955;28;19929;-51
2021/11/26 07:04:40;;;;;;;;;;;;;;;2.83;100.00;99900.84;5049613;28;19925;-48
2021/11/26 07:07:07;;;;;;;;;;;;;;;2.84;100.00;99900.78;5050010;28;19929;-49
2021/11/26 07:09:33;;;;;;;;;;;;;;;2.87;100.00;99892.00;5049450;28;19928;-51
2021/11/26 07:12:00;;;;;;;;;;;;;;;2.86;100.00;99891.16;5049795;28;20386;-50
2021/11/26 07:14:42;;;;;;;;;;;;;;;2.85;100.00;99888.63;5048114;28;20392;-50
2021/11/26 07:17:09;;;;;;;;;;;;;;;2.83;100.00;99888.69;5049323;28;19928;-50
2021/11/26 07:19:38;;;;;;;;;;;;;;;2.88;100.00;99886.72;5049600;28;20023;-50
2021/11/26 07:22:05;;;;;;;;;;;;;;;2.88;100.00;99875.50;5045402;28;19929;-51
2021/11/26 07:24:32;;;;;;;;;;;;;;;2.95;100.00;99884.66;5051819;28;19925;-49
2021/11/26 07:26:59;;;;;;;;;;;;;;;2.91;100.00;99879.72;5048430;28;20334;-48
2021/11/26 07:29:25;;;;;;;;;;;;;;;2.98;100.00;99883.69;5048999;28;20003;-49
2021/11/26 07:31:52;;;;;;;;;;;;;;;2.92;100.00;99874.44;5049574;28;19947;-52
2021/11/26 07:34:19;;;;;;;;;;;;;;;2.92;100.00;99873.56;5047717;28;20309;-52
2021/11/26 07:36:46;;;;;;;;;;;;;;;2.96;100.00;99875.09;5048774;28;19925;-53
2021/11/26 07:39:12;;;;;;;;;;;;;;;2.97;100.00;99862.06;5049301;28;20055;-53
2021/11/26 07:41:39;;;;;;;;;;;;;;;2.90;100.00;99865.88;5051731;28;19925;-52
2021/11/26 07:44:06;;;;;;;;;;;;;;;2.91;100.00;99866.72;5050869;28;19925;-48
2021/11/26 07:46:32;;;;;;;;;;;;;;;2.92;100.00;99864.06;5051960;28;19925;-53
2021/11/26 07:48:59;;;;;;;;;;;;;;;3.00;100.00;99856.72;5050795;28;19932;-55
2021/11/26 07:51:28;;;;;;;;;;;;;;;2.98;100.00;99855.94;5051904;28;20384;-50
2021/11/26 07:53:55;;;;;;;;;;;;;;;2.95;100.00;99847.47;5055928;28;19929;-54
2021/11/26 07:56:22;;;;;;;;;;;;;;;2.94;100.00;99843.19;5054363;28;19931;-54
2021/11/26 07:58:49;;;;;;;;;;;;;;;2.98;100.00;99837.75;5053173;28;19925;-52
2021/11/26 08:01:15;;;;;;;;;;;;;;;2.97;100.00;99838.69;5051247;28;20460;-52
2021/11/26 08:03:43;;;;;;;;;;;;;;;3.00;100.00;99829.88;5051663;28;19935;-50
2021/11/26 08:06:10;;;;;;;;;;;;;;;2.99;100.00;99817.84;5052957;28;19925;-51
2021/11/26 08:08:36;;;;;;;;;;;;;;;3.04;100.00;99816.69;5052682;28;19952;-53
2021/11/26 08:11:03;;;;;;;;;;;;;;;3.01;100.00;99821.19;5052592;28;19928;-48
2021/11/26 08:13:30;;;;;;;;;;;;;;;3.00;100.00;99817.75;5051192;28;19975;-52
2021/11/26 08:15:56;;;;;;;;;;;;;;;2.98;100.00;99810.94;5051922;28;19975;-50
2021/11/26 08:18:23;;;;;;;;;;;;;;;2.93;100.00;99805.13;5053812;28;19932;-50
2021/11/26 08:20:50;;;;;;;;;;;;;;;2.96;100.00;99805.84;5055650;28;19932;-52
2021/11/26 08:23:16;;;;;;;;;;;;;;;2.98;100.00;99796.19;5055439;28;19987;-50
2021/11/26 08:25:43;;;;;;;;;;;;;;;3.00;100.00;99790.91;5052025;28;20415;-48
2021/11/26 08:28:09;;;;;;;;;;;;;;;3.02;100.00;99783.91;5052309;28;19925;-49
2021/11/26 08:30:36;;;;;;;;;;;;;;;3.05;100.00;99778.53;5051722;28;19948;-53
2021/11/26 08:33:03;;;;;;;;;;;;;;;3.02;100.00;99770.91;5053201;28;19954;-54
2021/11/26 08:35:33;;;;;;;;;;;;;;;3.09;100.00;99774.88;5052336;28;20295;-52
2021/11/26 08:38:00;;;;;;;;;;;;;;;3.06;100.00;99762.03;5050767;28;19929;-54
2021/11/26 08:40:27;;;;;;;;;;;;;;;3.09;100.00;99758.44;5050386;28;20392;-52
2021/11/26 08:42:53;;;;;;;;;;;;;;;3.08;100.00;99756.75;5052051;28;19987;-48
2021/11/26 08:45:25;;;;;;;;;;;;;;;3.05;100.00;99760.34;5038180;28;19964;-52
2021/11/26 08:47:52;;;;;;;;;;;;;;;3.02;100.00;99747.53;5053648;28;19966;-48
2021/11/26 08:50:20;;;;;;;;;;;;;;;3.08;100.00;99743.78;5051477;28;19929;-52
2021/11/26 08:52:47;;;;;;;;;;;;;;;3.09;100.00;99745.47;5049858;28;19929;-49
2021/11/26 08:55:16;;;;;;;;;;;;;;;3.10;100.00;99737.59;5052208;28;19925;-52
2021/11/26 08:57:50;;;;;;;;;;;;;;;3.06;100.00;99733.47;5051260;28;19933;-49
2021/11/26 09:00:17;;;;;;;;;;;;;;;3.14;100.00;99731.31;5051905;28;19925;-53
2021/11/26 09:02:44;;;;;;;;;;;;;;;3.15;100.00;99722.59;5050653;28;19937;-54
2021/11/26 09:05:11;;;;;;;;;;;;;;;3.15;100.00;99722.59;5049874;28;19925;-53
2021/11/26 09:07:37;;;;;;;;;;;;;;;3.21;100.00;99714.47;5050010;28;19932;-54
2021/11/26 09:10:04;;;;;;;;;;;;;;;3.21;100.00;99711.03;5051103;28;19925;-55
2021/11/26 09:12:31;;;;;;;;;;;;;;;3.23;100.00;99706.59;5053547;28;20415;-56
2021/11/26 09:14:58;;;;;;;;;;;;;;;3.25;100.00;99709.13;5053370;28;19925;-56
2021/11/26 09:17:24;;;;;;;;;;;;;;;3.21;100.00;99701.47;5054113;28;20318;-54
2021/11/26 09:19:51;;;;;;;;;;;;;;;3.16;100.00;99695.72;5050764;28;19935;-52
2021/11/26 09:22:18;;;;;;;;;;;;;;;3.20;100.00;99697.22;5051184;28;19931;-49
2021/11/26 09:24:44;;;;;;;;;;;;;;;3.23;100.00;99691.00;5050113;28;19940;-56
2021/11/26 09:27:11;;;;;;;;;;;;;;;3.21;100.00;99682.47;5049741;28;19932;-56
2021/11/26 09:29:44;;;;;;;;;;;;;;;3.29;100.00;99684.66;5053463;28;20011;-51
2021/11/26 09:32:10;;;;;;;;;;;;;;;3.34;100.00;99674.84;5050351;28;19929;-56
2021/11/26 09:34:37;;;;;;;;;;;;;;;3.30;100.00;99670.72;5051433;28;19932;-55
2021/11/26 09:37:04;;;;;;;;;;;;;;;3.29;100.00;99662.09;5051940;28;19971;-50
2021/11/26 09:39:31;;;;;;;;;;;;;;;3.37;100.00;99664.28;5053132;28;19925;-53
2021/11/26 09:41:58;;;;;;;;;;;;;;;3.33;100.00;99652.38;5054203;28;19925;-55
2021/11/26 09:44:25;;;;;;;;;;;;;;;3.36;100.00;99639.22;5054114;28;20429;-54
2021/11/26 09:46:54;;;;;;;;;;;;;;;3.42;100.00;99636.28;5053227;28;19925;-50
2021/11/26 09:49:21;;;;;;;;;;;;;;;3.44;100.00;99631.00;5049794;28;19925;-57
2021/11/26 09:51:48;;;;;;;;;;;;;;;3.43;100.00;99624.13;5050060;28;20399;-52
2021/11/26 09:54:15;;;;;;;;;;;;;;;3.44;100.00;99626.63;5049642;28;19925;-56
2021/11/26 09:56:42;;;;;;;;;;;;;;;3.46;100.00;99619.59;5048935;28;19935;-51
2021/11/26 09:59:09;;;;;;;;;;;;;;;3.41;100.00;99619.00;5048958;28;19928;-55
2021/11/26 10:01:35;;;;;;;;;;;;;;;3.45;100.00;99610.13;5052831;28;19929;-49
2021/11/26 10:04:14;;;;;;;;;;;;;;;3.48;100.00;99598.72;5052064;28;20415;-57
2021/11/26 10:06:41;;;;;;;;;;;;;;;3.42;100.00;99594.69;5049057;28;20395;-53
2021/11/26 10:09:07;;;;;;;;;;;;;;;3.44;100.00;99582.44;5049320;28;19929;-56
2021/11/26 10:11:38;;;;;;;;;;;;;;;3.53;100.00;99578.47;5050192;28;20415;-56
2021/11/26 10:14:14;;;;;;;;;;;;;;;3.53;100.00;99568.09;5049087;28;19985;-53
2021/11/26 10:16:55;;;;;;;;;;;;;;;3.67;100.00;99560.34;5049279;28;19983;-56
2021/11/26 10:19:50;;;;;;;;;;;;;;;3.75;100.00;99546.94;5050275;28;20027;-57
2021/11/26 10:22:27;;;;;;;;;;;;;;;3.80;100.00;99536.25;5049391;28;19925;-50
2021/11/26 10:25:03;;;;;;;;;;;;;;;3.85;100.00;99527.25;5050784;28;19979;-52
2021/11/26 10:27:34;;;;;;;;;;;;;;;3.92;100.00;99522.53;5049104;28;19932;-54
2021/11/26 10:30:12;;;;;;;;;;;;;;;3.94;99.98;99517.22;5050213;28;19932;-52
2021/11/26 10:32:38;;;;;;;;;;;;;;;3.99;98.65;99510.00;5049118;28;19947;-56
2021/11/26 10:35:10;;;;;;;;;;;;;;;4.05;98.88;99502.66;5050243;28;19928;-49
2021/11/26 10:37:37;;;;;;;;;;;;;;;4.09;98.45;99490.31;5049889;28;20291;-53
2021/11/26 10:40:16;;;;;;;;;;;;;;;4.10;97.00;99481.56;5050583;28;19971;-56
2021/11/26 10:42:44;;;;;;;;;;;;;;;4.17;95.94;99467.28;5032028;28;20575;-54
2021/11/26 10:45:18;;;;;;;;;;;;;;;4.23;98.61;99459.09;5049607;28;20449;-53
2021/11/26 10:47:53;;;;;;;;;;;;;;;4.26;97.27;99449.44;5048670;28;20310;-51
2021/11/26 10:58:49;;;;;;;;;;;;;;;4.33;95.76;99422.09;5048712;28;20391;-51
2021/11/26 11:01:15;;;;;;;;;;;;;;;4.38;94.44;99412.22;5049843;28;19979;-54
2021/11/26 11:03:44;;;;;;;;;;;;;;;4.41;94.41;99401.63;5048718;28;20701;-49
2021/11/26 11:06:17;;;;;;;;;;;;;;;4.39;94.85;99404.31;5049940;28;19925;-53
2021/11/26 11:08:44;;;;;;;;;;;;;;;4.38;93.46;99394.84;5049895;28;19928;-52
2021/11/26 11:11:10;;;;;;;;;;;;;;;4.37;92.98;99381.91;5048961;28;20285;-49
2021/11/26 11:13:37;;;;;;;;;;;;;;;4.36;95.28;99370.69;5050088;28;20288;-54
2021/11/26 11:16:08;;;;;;;;;;;;;;;4.36;94.71;99362.03;5048728;28;19959;-54
2021/11/26 11:18:37;;;;;;;;;;;;;;;4.36;94.63;99360.28;5049191;28;20393;-55
2021/11/26 11:21:07;;;;;;;;;;;;;;;4.34;95.12;99353.50;5049666;28;20379;-55
2021/11/26 11:23:34;;;;;;;;;;;;;;;4.40;93.76;99345.28;5048761;28;19929;-53
2021/11/26 11:26:00;;;;;;;;;;;;;;;4.48;93.37;99342.19;5049356;28;20411;-54
2021/11/26 11:28:27;;;;;;;;;;;;;;;4.43;93.25;99336.44;5052877;28;19932;-53
2021/11/26 11:30:54;;;;;;;;;;;;;;;4.41;93.07;99339.13;5052936;28;20405;-54
2021/11/26 11:33:21;;;;;;;;;;;;;;;4.48;93.22;99322.19;5035670;28;19924;-53
2021/11/26 11:35:48;;;;;;;;;;;;;;;4.65;93.06;99317.66;5052235;28;20277;-56
2021/11/26 11:38:16;;;;;;;;;;;;;;;4.65;93.23;99308.09;5053948;28;19925;-55
2021/11/26 11:40:44;;;;;;;;;;;;;;;4.63;93.08;99303.91;5052020;28;20351;-54
2021/11/26 11:43:12;;;;;;;;;;;;;;;4.61;92.38;99295.34;5053461;28;19924;-51
2021/11/26 11:45:39;;;;;;;;;;;;;;;4.62;92.33;99292.69;5052310;28;19983;-53
2021/11/26 11:48:09;;;;;;;;;;;;;;;4.71;93.14;99276.44;5052712;28;19929;-52
2021/11/26 11:50:43;;;;;;;;;;;;;;;4.77;91.32;99275.19;5053723;28;19971;-53
2021/11/26 11:53:18;;;;;;;;;;;;;;;4.71;91.91;99275.59;5052373;28;19931;-55
2021/11/26 11:55:45;;;;;;;;;;;;;;;4.78;91.72;99271.66;5051866;28;20307;-55
2021/11/26 11:58:14;;;;;;;;;;;;;;;4.72;90.93;99261.66;5052972;28;19928;-53
2021/11/26 12:00:42;;;;;;;;;;;;;;;4.74;90.14;99252.81;5051976;28;19978;-53
2021/11/26 12:03:10;;;;;;;;;;;;;;;4.83;90.44;99234.91;5053134;28;19924;-55
2021/11/26 12:05:37;;;;;;;;;;;;;;;4.73;91.78;99237.25;5051679;28;19979;-55
2021/11/26 12:08:06;;;;;;;;;;;;;;;4.85;90.87;99230.41;5053030;28;19929;-54
2021/11/26 12:10:43;;;;;;;;;;;;;;;4.86;91.20;99226.88;5052733;28;19925;-56
2021/11/26 12:13:20;;;;;;;;;;;;;;;5.00;91.21;99212.91;5053101;28;19925;-55
2021/11/26 12:15:46;;;;;;;;;;;;;;;4.84;91.66;99208.75;5050585;28;20367;-54
2021/11/26 12:18:13;;;;;;;;;;;;;;;4.76;92.55;99199.75;5052052;28;19935;-56
2021/11/26 12:20:41;;;;;;;;;;;;;;;4.68;92.06;99189.88;5052311;28;19932;-56
2021/11/26 12:23:24;;;;;;;;;;;;;;;4.64;93.76;99186.63;5052868;28;19933;-56
2021/11/26 12:28:58;;;;;;;;;;;;;;;4.55;93.31;99169.88;5051399;28;19925;-55
2021/11/26 12:31:29;;;;;;;;;;;;;;;4.42;94.42;99169.00;5052283;28;19932;-55
2021/11/26 12:33:57;;;;;;;;;;;;;;;4.53;95.97;99158.69;5034500;28;19974;-56
2021/11/26 12:36:23;;;;;;;;;;;;;;;4.38;96.05;99152.75;5052449;28;19936;-53
2021/11/26 12:38:51;;;;;;;;;;;;;;;4.24;97.72;99147.63;5049638;28;19939;-57
2021/11/26 12:41:31;;;;;;;;;;;;;;;4.23;98.21;99131.16;5052555;28;19987;-53
2021/11/26 12:43:58;;;;;;;;;;;;;;;4.12;99.34;99128.44;5051551;28;20713;-51
2021/11/26 12:46:32;;;;;;;;;;;;;;;4.07;99.37;99126.13;5051737;28;19924;-55
2021/11/26 12:51:46;;;;;;;;;;;;;;;3.95;100.00;99102.69;5052125;28;20016;-55
2021/11/26 12:54:25;;;;;;;;;;;;;;;3.73;100.00;99094.50;5052396;28;20426;-57
2021/11/26 12:56:52;;;;;;;;;;;;;;;3.78;100.00;99098.59;5055070;28;19931;-59
2021/11/26 12:59:54;;;;;;;;;;;;;;;3.77;100.00;99092.56;5052300;28;19975;-50